Airfield :
LOGIN :

Register | Disclaimer

   EN    FR    IT 

 










Legend :    VFR   Marginal VFR   IFR   Intensive IFR   Very Intensive IFR
Visi :
Ceiling :
>= 8 km
>= 3000ft
5 to 8 km
1000 to 3000 ft
1500m to 5 km
500 to 1000 ft
800 to 1500m
200 to 500 ft
< 800m
< 200 ft
Symbols :   Thunderstorms  Fog  Heavy snow  Heavy precipitations  Wind > 20 kt
SIGMETs :     Misc.  Thunderstorms  Icing  Turbulence  Mountain Waves  Volcanic Ashes






- Airport Elevation : 38 ft
- IATA code : BOH


EGHH - Bournemouth

CURRENT METAR :
  • 101750Z 36008KT 330V050 9999 FEW017 SCT032 BKN043 06/04 Q1012

EXPIRED METARs :
  • 101720Z 02009KT 340V080 9999 SCT018 BKN028 07/04 Q1012
  • 101650Z 02010KT 340V070 9999 SCT021 BKN027 07/04 Q1011
  • 101620Z 03010KT 340V080 9999 BKN024 08/03 Q1011
  • 101550Z 04011KT 360V080 9999 SCT024 BKN035 09/03 Q1011
  • 101520Z 03010KT 330V070 9999 SCT022 BKN029 09/04 Q1011

TAF TAF EGHH
Valid from the 10 at 18:00 until the 11 at 03:00 UTC


101654Z 1018/1103 03007KT 9999 SCT025
TEMPO 1018/1103 7000 RA SHRA BKN012
ATIS : +44 1202 364 151
Met : +44 1202 364 158 (TAF)



MET'MAP, your aeronautical weather chart ! - Copyright ORBIFLY December 2007 - Disclaimer

ORBIFLY MET'MAP TEAM :

Programming & Development : Alexandra Zaïnal
Concept & original design : Baudouin d'Aumeries
Assistance for programming : Marc-Olivier Méhu
Technical & hardware support : Manuel Goepfert

Contact : metmap@orbifly.com




SOURCES & CREDITS :

   NOAA